Resolute — WTW2234 — position and weather

sailwx.info

Track history (hours):
 
Tides and Currents Weather Stations Pressure Air Temp Water Temp Dewpoint Dewpoint Depression Visibility Wind Speed Wind Dir Waves Ship Positions

Resolute

Owner: Providence Steamboat Co., PROVIDENCE, RI. More information available from US FCC via Universal Licensing System and Coast Guard Vessel Documentation Center.

Last reported at 2015-May-04 23:06 UTC. Time now 2015-May-05 00:12 UTC.
Position N 40°31' W 074°15'.

Length 30 m; draft 4 m.

Type: Tug. MMSI: 367091630.

Date/timePositionNaut miles runAvg speedWind from/ knotsBaromVisibWave heightAir tempDewpointWater temp
2015-May-04 23:06N 40°31' W 074°15'0 0.0
2015-May-04 22:21N 40°31' W 074°15'1 0.4
2015-May-04 20:32N 40°32' W 074°15'0 0.0
2015-May-04 19:05N 40°32' W 074°15'0 0.2
2015-May-04 18:16N 40°32' W 074°15'0 0.0
2015-May-04 17:23N 40°32' W 074°15'0 0.0
2015-May-04 16:33N 40°32' W 074°15'0 0.0
2015-May-04 15:30N 40°32' W 074°15'1 1.5
2015-May-04 14:33N 40°33' W 074°14'0 0.0
2015-May-04 13:33N 40°33' W 074°14'0 0.0
2015-May-04 12:32N 40°33' W 074°14'4 4.0
2015-May-04 11:33N 40°37' W 074°12'2 2.4
2015-May-04 10:33N 40°38' W 074°10'0 0.0
2015-May-04 09:33N 40°38' W 074°10'0 0.0
2015-May-04 08:33N 40°38' W 074°10'0 0.0
2015-May-04 07:33N 40°38' W 074°10'0 0.0
2015-May-04 06:33N 40°38' W 074°10'2 1.9
2015-May-04 05:33N 40°38' W 074°12'7 6.5
2015-May-04 04:33N 40°31' W 074°15'5 4.9
2015-May-04 03:30N 40°36' W 074°12'6 6.4
2015-May-04 02:33N 40°39' W 074°05'7 7.4
2015-May-04 01:34N 40°44' W 073°58'6 5.8
2015-May-04 00:33N 40°48' W 073°52'5 5.0
2015-May-03 23:28N 40°50' W 073°46'8 6.3
2015-May-03 22:12N 40°55' W 073°38'4 6.5
2015-May-03 21:33N 40°57' W 073°33'7 6.8
2015-May-03 20:33N 41°00' W 073°25'8 8.1
2015-May-03 19:33N 40°60' W 073°14'8 7.6
2015-May-03 18:33N 40°57' W 073°05'0 0.2
2015-May-03 17:14N 40°57' W 073°04'0 0.0
2015-May-03 16:33N 40°57' W 073°04'0 0.0
2015-May-03 15:33N 40°57' W 073°04'0 0.0
2015-May-03 14:33N 40°57' W 073°04'0 0.0
2015-May-03 13:32N 40°57' W 073°04'0 0.0
2015-May-03 12:33N 40°57' W 073°04'0 0.0
2015-May-03 11:33N 40°57' W 073°04'0 0.0
2015-May-03 10:34N 40°57' W 073°04'0 0.0
2015-May-03 09:33N 40°57' W 073°04'2 2.3
2015-May-03 08:34N 40°59' W 073°06'6 5.7
2015-May-03 07:34N 40°60' W 073°13'6 5.8
2015-May-03 06:34N 41°00' W 073°21'6 6.5
2015-May-03 05:33N 40°58' W 073°29'7 6.8
2015-May-03 04:33N 40°55' W 073°37'7 6.8
2015-May-03 03:34N 40°52' W 073°45'6 6.0
2015-May-03 02:32N 40°48' W 073°51'6 6.2
2015-May-03 01:33N 40°45' W 073°58'6 5.6
2015-May-03 00:32N 40°40' W 074°02'0 0.1
2015-May-02 23:33N 40°40' W 074°02'0 0.0
2015-May-02 22:33N 40°40' W 074°02'1 1.3
2015-May-02 21:33N 40°39' W 074°03'5 4.7
2015-May-02 20:34N 40°39' W 074°10'4 4.1
2015-May-02 19:30N 40°35' W 074°12'3 3.0
2015-May-02 18:27N 40°33' W 074°15'4 4.3
2015-May-02 17:33N 40°36' W 074°12'0 0.0
2015-May-02 16:33N 40°36' W 074°12'1 0.7
2015-May-02 15:33N 40°36' W 074°12'0 0.1
2015-May-02 14:33N 40°36' W 074°12'1 0.8
2015-May-02 13:32N 40°36' W 074°12'0 0.1
2015-May-02 12:31N 40°36' W 074°12'4 4.5
2015-May-02 11:33N 40°39' W 074°09'1 1.1
2015-May-02 10:34N 40°40' W 074°08'4 4.0
2015-May-02 09:28N 40°38' W 074°03'5 5.4
2015-May-02 08:33N 40°38' W 074°10'7 6.3
2015-May-02 07:31N 40°33' W 074°15'3 2.7
2015-May-02 06:14N 40°36' W 074°12'4 5.9
2015-May-02 05:33N 40°39' W 074°08'5 4.8
2015-May-02 04:33N 40°40' W 074°02'2 1.5
2015-May-02 03:33N 40°40' W 074°04'0 0.0
2015-May-02 02:33N 40°40' W 074°04'8 7.8
2015-May-02 01:33N 40°46' W 073°57'1 0.7
2015-May-02 00:33N 40°46' W 073°57'9 8.8
2015-May-01 23:33N 40°40' W 074°04'4 4.4
2015-May-01 22:33N 40°39' W 074°10'0 0.1
2015-May-01 21:33N 40°38' W 074°10'0 0.0
2015-May-01 20:33N 40°38' W 074°10'0 0.0
2015-May-01 19:33N 40°38' W 074°10'0 0.0
2015-May-01 18:33N 40°38' W 074°10'0 0.0
2015-May-01 17:33N 40°38' W 074°10'2 1.5
2015-May-01 16:33N 40°40' W 074°09'2 2.1
2015-May-01 15:33N 40°42' W 074°08'3 3.5
2015-May-01 14:33N 40°38' W 074°10'0 0.0
2015-May-01 13:33N 40°38' W 074°10'0 0.0
2015-May-01 12:33N 40°38' W 074°10'2 2.5
2015-May-01 11:34N 40°39' W 074°07'3 2.6
2015-May-01 10:33N 40°40' W 074°03'3 3.0
2015-May-01 09:33N 40°41' W 074°00'0 0.0
2015-May-01 08:33N 40°41' W 074°00'1 0.7
2015-May-01 07:33N 40°41' W 074°01'6 6.1
2015-May-01 06:34N 40°39' W 074°08'5 4.8
2015-May-01 05:33N 40°40' W 074°02'3 2.6
2015-May-01 04:33N 40°39' W 074°05'6 5.0
2015-May-01 03:25N 40°37' W 074°12'2 1.2
2015-May-01 02:05N 40°35' W 074°13'1 0.6
2015-May-01 01:07N 40°36' W 074°12'2 1.3
2015-Apr-30 23:33N 40°38' W 074°12'5 5.5
2015-Apr-30 22:33N 40°39' W 074°05'2 2.0
2015-Apr-30 21:33N 40°39' W 074°08'2 1.7
2015-Apr-30 20:33N 40°38' W 074°10'0 0.0
2015-Apr-30 19:33N 40°38' W 074°10'6 5.3
2015-Apr-30 18:30N 40°33' W 074°13'1 0.8
2015-Apr-30 17:34N 40°33' W 074°14'0 0.0
2015-Apr-30 16:32N 40°33' W 074°14'1 1.0
2015-Apr-30 15:24N 40°34' W 074°13'3 3.1
2015-Apr-30 14:33N 40°36' W 074°12'3 2.8
2015-Apr-30 13:33N 40°38' W 074°10'0 0.0
2015-Apr-30 12:33N 40°38' W 074°10'1 0.9
2015-Apr-30 11:33N 40°39' W 074°11'6 4.1
2015-Apr-30 10:13N 40°33' W 074°13'1 0.5
2015-Apr-30 07:18N 40°35' W 074°13'4 5.6
2015-Apr-30 06:33N 40°38' W 074°10'0 0.0
2015-Apr-30 05:33N 40°38' W 074°10'0 0.0
2015-Apr-30 04:33N 40°38' W 074°10'0 0.0
2015-Apr-30 03:33N 40°38' W 074°10'0 0.0
2015-Apr-30 02:33N 40°38' W 074°10'2 1.8
2015-Apr-30 01:33N 40°38' W 074°12'0 0.4
2015-Apr-30 00:33N 40°38' W 074°12'0 0.0
2015-Apr-29 23:29N 40°38' W 074°12'0 0.0
2015-Apr-29 22:33N 40°38' W 074°12'5 5.2
2015-Apr-29 21:32N 40°33' W 074°15'2 2.4
2015-Apr-29 20:33N 40°34' W 074°13'6 6.0
2015-Apr-29 19:33N 40°40' W 074°09'1 1.3
2015-Apr-29 18:32N 40°39' W 074°07'6 6.2
2015-Apr-29 17:33N 40°42' W 074°00'0 0.0
2015-Apr-29 16:33N 40°42' W 074°00'5 5.3
2015-Apr-29 15:34N 40°39' W 074°06'3 2.8
2015-Apr-29 14:33N 40°38' W 074°10'0 0.0
2015-Apr-29 13:33N 40°38' W 074°10'0 0.0
2015-Apr-29 12:33N 40°38' W 074°10'0 0.0
2015-Apr-29 11:33N 40°38' W 074°10'0 0.0
2015-Apr-29 10:33N 40°38' W 074°10'0 0.0
2015-Apr-29 09:33N 40°38' W 074°10'0 0.0
2015-Apr-29 08:33N 40°38' W 074°10'0 0.0
2015-Apr-29 07:33N 40°38' W 074°10'0 0.0
2015-Apr-29 06:33N 40°38' W 074°10'0 0.0
2015-Apr-29 05:33N 40°38' W 074°10'0 0.0
2015-Apr-29 04:33N 40°38' W 074°10'0 0.0
2015-Apr-29 03:33N 40°38' W 074°10'0 0.0
2015-Apr-29 02:34N 40°38' W 074°10'0 0.0
2015-Apr-29 01:34N 40°38' W 074°10'0 0.0
2015-Apr-29 00:33N 40°38' W 074°10'0 0.1
2015-Apr-28 23:32N 40°39' W 074°10'2 1.9
2015-Apr-28 22:33N 40°40' W 074°08'2 1.6
2015-Apr-28 21:32N 40°42' W 074°08'3 3.4
2015-Apr-28 20:33N 40°38' W 074°09'0 0.5
2015-Apr-28 19:33N 40°38' W 074°10'0 0.0
2015-Apr-28 18:33N 40°38' W 074°10'0 0.5
2015-Apr-28 17:32N 40°39' W 074°10'1 0.5
2015-Apr-28 16:33N 40°38' W 074°10'0 0.0
2015-Apr-28 15:33N 40°38' W 074°10'3 3.2
2015-Apr-28 14:33N 40°39' W 074°06'0 0.1
2015-Apr-28 13:33N 40°39' W 074°06'6 5.5
2015-Apr-28 12:33N 40°37' W 074°12'1 1.1
2015-Apr-28 11:32N 40°38' W 074°12'2 2.0
2015-Apr-28 10:33N 40°38' W 074°10'2 2.0
2015-Apr-28 09:34N 40°40' W 074°08'2 1.9
2015-Apr-28 08:33N 40°38' W 074°10'4 4.4
2015-Apr-28 07:33N 40°40' W 074°04'3 3.4
2015-Apr-28 06:33N 40°39' W 074°08'1 1.1
2015-Apr-28 05:34N 40°38' W 074°10'0 0.0
2015-Apr-28 04:33N 40°38' W 074°10'0 0.0
2015-Apr-28 03:33N 40°38' W 074°10'0 0.3
2015-Apr-28 02:33N 40°38' W 074°10'3 2.5
2015-Apr-28 01:33N 40°41' W 074°09'3 2.5
2015-Apr-28 00:34N 40°38' W 074°10'3 1.2
2015-Apr-27 22:11N 40°36' W 074°12'2 2.7
2015-Apr-27 21:33N 40°38' W 074°12'2 1.8
2015-Apr-27 20:33N 40°38' W 074°10'0 0.0
2015-Apr-27 19:33N 40°38' W 074°10'0 0.0
2015-Apr-27 18:33N 40°38' W 074°10'2 2.0
2015-Apr-27 17:34N 40°39' W 074°07'2 1.8
2015-Apr-27 16:33N 40°38' W 074°09'0 0.3
2015-Apr-27 15:34N 40°38' W 074°10'0 0.0
2015-Apr-27 14:33N 40°38' W 074°10'0 0.0
2015-Apr-27 13:33N 40°38' W 074°10'0 0.0
2015-Apr-27 12:33N 40°38' W 074°10'1 1.1
2015-Apr-27 11:33N 40°39' W 074°08'3 2.9
2015-Apr-27 10:33N 40°39' W 074°05'6 5.8
2015-Apr-27 09:33N 40°42' W 073°58'2 1.7
2015-Apr-27 08:34N 40°41' W 074°00'6 5.6
2015-Apr-27 07:33N 40°39' W 074°07'2 2.4
2015-Apr-27 06:33N 40°38' W 074°10'0 0.0
2015-Apr-27 05:33N 40°38' W 074°10'0 0.0
2015-Apr-27 04:33N 40°38' W 074°10'0 0.0
2015-Apr-27 03:33N 40°38' W 074°10'0 0.0
2015-Apr-27 02:34N 40°38' W 074°10'2 1.8
2015-Apr-27 01:34N 40°38' W 074°12'0 0.2
2015-Apr-27 00:34N 40°38' W 074°12'0 0.0
2015-Apr-26 23:33N 40°38' W 074°12'0 0.1
2015-Apr-26 22:33N 40°38' W 074°12'2 1.9
2015-Apr-26 21:33N 40°38' W 074°10'0 0.0
2015-Apr-26 20:33N 40°38' W 074°10'0 0.0
2015-Apr-26 19:33N 40°38' W 074°10'0 0.0
2015-Apr-26 18:33N 40°38' W 074°10'0 0.0
2015-Apr-26 17:33N 40°38' W 074°10'0 0.0
2015-Apr-26 16:33N 40°38' W 074°10'0 0.0
2015-Apr-26 15:33N 40°38' W 074°10'0 0.0
2015-Apr-26 14:34N 40°38' W 074°10'0 0.0
2015-Apr-26 13:33N 40°38' W 074°10'0 0.0
2015-Apr-26 12:34N 40°38' W 074°10'0 0.0
2015-Apr-26 11:33N 40°38' W 074°10'0 0.0
2015-Apr-26 10:33N 40°38' W 074°10'0 0.4
2015-Apr-26 09:33N 40°39' W 074°10'4 0.9
2015-Apr-26 05:33N 40°35' W 074°12'0 0.0
2015-Apr-26 04:28N 40°35' W 074°12'0 0.0
2015-Apr-26 02:27N 40°35' W 074°12'0 0.0
2015-Apr-26 00:33N 40°35' W 074°12'0 0.0
2015-Apr-25 23:23N 40°35' W 074°12'0 0.0
2015-Apr-25 21:21N 40°35' W 074°12'2 1.1
2015-Apr-25 19:31N 40°34' W 074°13'3 1.1
2015-Apr-25 16:23N 40°31' W 074°16'5 2.9
2015-Apr-25 14:32N 40°35' W 074°12'0 0.0
2015-Apr-25 13:31N 40°35' W 074°12'1 1.0
2015-Apr-25 12:33N 40°36' W 074°12'6 5.7
2015-Apr-25 11:33N 40°41' W 074°08'1 0.9
2015-Apr-25 10:33N 40°42' W 074°08'0 0.2
2015-Apr-25 09:33N 40°42' W 074°08'3 3.3
2015-Apr-25 08:34N 40°38' W 074°10'0 0.0
2015-Apr-25 07:33N 40°38' W 074°10'0 0.0
2015-Apr-25 06:33N 40°38' W 074°10'0 0.0
2015-Apr-25 05:33N 40°38' W 074°10'0 0.0
2015-Apr-25 04:34N 40°38' W 074°10'0 0.0
2015-Apr-25 03:33N 40°38' W 074°10'0 0.0
2015-Apr-25 02:33N 40°38' W 074°10'0 0.0
2015-Apr-25 01:33N 40°38' W 074°10'0 0.0
2015-Apr-25 00:33N 40°38' W 074°10'0 0.0
2015-Apr-24 23:33N 40°38' W 074°10'  
Track history (hours):
 
Tides and Currents Weather Stations Pressure Air Temp Water Temp Dewpoint Dewpoint Depression Visibility Wind Speed Wind Dir Waves Ship Positions

Resolute

Owner: Providence Steamboat Co., PROVIDENCE, RI. More information available from US FCC via Universal Licensing System and Coast Guard Vessel Documentation Center.

Last reported at 2015-May-04 23:06 UTC. Time now 2015-May-05 00:12 UTC.
Position N 40°31' W 074°15'.

Length 30 m; draft 4 m.

Type: Tug. MMSI: 367091630.

Date/timePositionNaut miles runAvg speedWind from/ knotsBaromVisibWave heightAir tempDewpointWater temp
2015-May-04 23:06N 40°31' W 074°15'0 0.0
2015-May-04 22:21N 40°31' W 074°15'1 0.4
2015-May-04 20:32N 40°32' W 074°15'0 0.0
2015-May-04 19:05N 40°32' W 074°15'0 0.2
2015-May-04 18:16N 40°32' W 074°15'0 0.0
2015-May-04 17:23N 40°32' W 074°15'0 0.0
2015-May-04 16:33N 40°32' W 074°15'0 0.0
2015-May-04 15:30N 40°32' W 074°15'1 1.5
2015-May-04 14:33N 40°33' W 074°14'0 0.0
2015-May-04 13:33N 40°33' W 074°14'0 0.0
2015-May-04 12:32N 40°33' W 074°14'4 4.0
2015-May-04 11:33N 40°37' W 074°12'2 2.4
2015-May-04 10:33N 40°38' W 074°10'0 0.0
2015-May-04 09:33N 40°38' W 074°10'0 0.0
2015-May-04 08:33N 40°38' W 074°10'0 0.0
2015-May-04 07:33N 40°38' W 074°10'0 0.0
2015-May-04 06:33N 40°38' W 074°10'2 1.9
2015-May-04 05:33N 40°38' W 074°12'7 6.5
2015-May-04 04:33N 40°31' W 074°15'5 4.9
2015-May-04 03:30N 40°36' W 074°12'6 6.4
2015-May-04 02:33N 40°39' W 074°05'7 7.4
2015-May-04 01:34N 40°44' W 073°58'6 5.8
2015-May-04 00:33N 40°48' W 073°52'5 5.0
2015-May-03 23:28N 40°50' W 073°46'8 6.3
2015-May-03 22:12N 40°55' W 073°38'4 6.5
2015-May-03 21:33N 40°57' W 073°33'7 6.8
2015-May-03 20:33N 41°00' W 073°25'8 8.1
2015-May-03 19:33N 40°60' W 073°14'8 7.6
2015-May-03 18:33N 40°57' W 073°05'0 0.2
2015-May-03 17:14N 40°57' W 073°04'0 0.0
2015-May-03 16:33N 40°57' W 073°04'0 0.0
2015-May-03 15:33N 40°57' W 073°04'0 0.0
2015-May-03 14:33N 40°57' W 073°04'0 0.0
2015-May-03 13:32N 40°57' W 073°04'0 0.0
2015-May-03 12:33N 40°57' W 073°04'0 0.0
2015-May-03 11:33N 40°57' W 073°04'0 0.0
2015-May-03 10:34N 40°57' W 073°04'0 0.0
2015-May-03 09:33N 40°57' W 073°04'2 2.3
2015-May-03 08:34N 40°59' W 073°06'6 5.7
2015-May-03 07:34N 40°60' W 073°13'6 5.8
2015-May-03 06:34N 41°00' W 073°21'6 6.5
2015-May-03 05:33N 40°58' W 073°29'7 6.8
2015-May-03 04:33N 40°55' W 073°37'7 6.8
2015-May-03 03:34N 40°52' W 073°45'6 6.0
2015-May-03 02:32N 40°48' W 073°51'6 6.2
2015-May-03 01:33N 40°45' W 073°58'6 5.6
2015-May-03 00:32N 40°40' W 074°02'0 0.1
2015-May-02 23:33N 40°40' W 074°02'0 0.0
2015-May-02 22:33N 40°40' W 074°02'1 1.3
2015-May-02 21:33N 40°39' W 074°03'5 4.7
2015-May-02 20:34N 40°39' W 074°10'4 4.1
2015-May-02 19:30N 40°35' W 074°12'3 3.0
2015-May-02 18:27N 40°33' W 074°15'4 4.3
2015-May-02 17:33N 40°36' W 074°12'0 0.0
2015-May-02 16:33N 40°36' W 074°12'1 0.7
2015-May-02 15:33N 40°36' W 074°12'0 0.1
2015-May-02 14:33N 40°36' W 074°12'1 0.8
2015-May-02 13:32N 40°36' W 074°12'0 0.1
2015-May-02 12:31N 40°36' W 074°12'4 4.5
2015-May-02 11:33N 40°39' W 074°09'1 1.1
2015-May-02 10:34N 40°40' W 074°08'4 4.0
2015-May-02 09:28N 40°38' W 074°03'5 5.4
2015-May-02 08:33N 40°38' W 074°10'7 6.3
2015-May-02 07:31N 40°33' W 074°15'3 2.7
2015-May-02 06:14N 40°36' W 074°12'4 5.9
2015-May-02 05:33N 40°39' W 074°08'5 4.8
2015-May-02 04:33N 40°40' W 074°02'2 1.5
2015-May-02 03:33N 40°40' W 074°04'0 0.0
2015-May-02 02:33N 40°40' W 074°04'8 7.8
2015-May-02 01:33N 40°46' W 073°57'1 0.7
2015-May-02 00:33N 40°46' W 073°57'9 8.8
2015-May-01 23:33N 40°40' W 074°04'4 4.4
2015-May-01 22:33N 40°39' W 074°10'0 0.1
2015-May-01 21:33N 40°38' W 074°10'0 0.0
2015-May-01 20:33N 40°38' W 074°10'0 0.0
2015-May-01 19:33N 40°38' W 074°10'0 0.0
2015-May-01 18:33N 40°38' W 074°10'0 0.0
2015-May-01 17:33N 40°38' W 074°10'2 1.5
2015-May-01 16:33N 40°40' W 074°09'2 2.1
2015-May-01 15:33N 40°42' W 074°08'3 3.5
2015-May-01 14:33N 40°38' W 074°10'0 0.0
2015-May-01 13:33N 40°38' W 074°10'0 0.0
2015-May-01 12:33N 40°38' W 074°10'2 2.5
2015-May-01 11:34N 40°39' W 074°07'3 2.6
2015-May-01 10:33N 40°40' W 074°03'3 3.0
2015-May-01 09:33N 40°41' W 074°00'0 0.0
2015-May-01 08:33N 40°41' W 074°00'1 0.7
2015-May-01 07:33N 40°41' W 074°01'6 6.1
2015-May-01 06:34N 40°39' W 074°08'5 4.8
2015-May-01 05:33N 40°40' W 074°02'3 2.6
2015-May-01 04:33N 40°39' W 074°05'6 5.0
2015-May-01 03:25N 40°37' W 074°12'2 1.2
2015-May-01 02:05N 40°35' W 074°13'1 0.6
2015-May-01 01:07N 40°36' W 074°12'2 1.3
2015-Apr-30 23:33N 40°38' W 074°12'5 5.5
2015-Apr-30 22:33N 40°39' W 074°05'2 2.0
2015-Apr-30 21:33N 40°39' W 074°08'2 1.7
2015-Apr-30 20:33N 40°38' W 074°10'0 0.0
2015-Apr-30 19:33N 40°38' W 074°10'6 5.3
2015-Apr-30 18:30N 40°33' W 074°13'1 0.8
2015-Apr-30 17:34N 40°33' W 074°14'0 0.0
2015-Apr-30 16:32N 40°33' W 074°14'1 1.0
2015-Apr-30 15:24N 40°34' W 074°13'3 3.1
2015-Apr-30 14:33N 40°36' W 074°12'3 2.8
2015-Apr-30 13:33N 40°38' W 074°10'0 0.0
2015-Apr-30 12:33N 40°38' W 074°10'1 0.9
2015-Apr-30 11:33N 40°39' W 074°11'6 4.1
2015-Apr-30 10:13N 40°33' W 074°13'1 0.5
2015-Apr-30 07:18N 40°35' W 074°13'4 5.6
2015-Apr-30 06:33N 40°38' W 074°10'0 0.0
2015-Apr-30 05:33N 40°38' W 074°10'0 0.0
2015-Apr-30 04:33N 40°38' W 074°10'0 0.0
2015-Apr-30 03:33N 40°38' W 074°10'0 0.0
2015-Apr-30 02:33N 40°38' W 074°10'2 1.8
2015-Apr-30 01:33N 40°38' W 074°12'0 0.4
2015-Apr-30 00:33N 40°38' W 074°12'0 0.0
2015-Apr-29 23:29N 40°38' W 074°12'0 0.0
2015-Apr-29 22:33N 40°38' W 074°12'5 5.2
2015-Apr-29 21:32N 40°33' W 074°15'2 2.4
2015-Apr-29 20:33N 40°34' W 074°13'6 6.0
2015-Apr-29 19:33N 40°40' W 074°09'1 1.3
2015-Apr-29 18:32N 40°39' W 074°07'6 6.2
2015-Apr-29 17:33N 40°42' W 074°00'0 0.0
2015-Apr-29 16:33N 40°42' W 074°00'5 5.3
2015-Apr-29 15:34N 40°39' W 074°06'3 2.8
2015-Apr-29 14:33N 40°38' W 074°10'0 0.0
2015-Apr-29 13:33N 40°38' W 074°10'0 0.0
2015-Apr-29 12:33N 40°38' W 074°10'0 0.0
2015-Apr-29 11:33N 40°38' W 074°10'0 0.0
2015-Apr-29 10:33N 40°38' W 074°10'0 0.0
2015-Apr-29 09:33N 40°38' W 074°10'0 0.0
2015-Apr-29 08:33N 40°38' W 074°10'0 0.0
2015-Apr-29 07:33N 40°38' W 074°10'0 0.0
2015-Apr-29 06:33N 40°38' W 074°10'0 0.0
2015-Apr-29 05:33N 40°38' W 074°10'0 0.0
2015-Apr-29 04:33N 40°38' W 074°10'0 0.0
2015-Apr-29 03:33N 40°38' W 074°10'0 0.0
2015-Apr-29 02:34N 40°38' W 074°10'0 0.0
2015-Apr-29 01:34N 40°38' W 074°10'0 0.0
2015-Apr-29 00:33N 40°38' W 074°10'0 0.1
2015-Apr-28 23:32N 40°39' W 074°10'2 1.9
2015-Apr-28 22:33N 40°40' W 074°08'2 1.6
2015-Apr-28 21:32N 40°42' W 074°08'3 3.4
2015-Apr-28 20:33N 40°38' W 074°09'0 0.5
2015-Apr-28 19:33N 40°38' W 074°10'0 0.0
2015-Apr-28 18:33N 40°38' W 074°10'0 0.5
2015-Apr-28 17:32N 40°39' W 074°10'1 0.5
2015-Apr-28 16:33N 40°38' W 074°10'0 0.0
2015-Apr-28 15:33N 40°38' W 074°10'3 3.2
2015-Apr-28 14:33N 40°39' W 074°06'0 0.1
2015-Apr-28 13:33N 40°39' W 074°06'6 5.5
2015-Apr-28 12:33N 40°37' W 074°12'1 1.1
2015-Apr-28 11:32N 40°38' W 074°12'2 2.0
2015-Apr-28 10:33N 40°38' W 074°10'2 2.0
2015-Apr-28 09:34N 40°40' W 074°08'2 1.9
2015-Apr-28 08:33N 40°38' W 074°10'4 4.4
2015-Apr-28 07:33N 40°40' W 074°04'3 3.4
2015-Apr-28 06:33N 40°39' W 074°08'1 1.1
2015-Apr-28 05:34N 40°38' W 074°10'0 0.0
2015-Apr-28 04:33N 40°38' W 074°10'0 0.0
2015-Apr-28 03:33N 40°38' W 074°10'0 0.3
2015-Apr-28 02:33N 40°38' W 074°10'3 2.5
2015-Apr-28 01:33N 40°41' W 074°09'3 2.5
2015-Apr-28 00:34N 40°38' W 074°10'3 1.2
2015-Apr-27 22:11N 40°36' W 074°12'2 2.7
2015-Apr-27 21:33N 40°38' W 074°12'2 1.8
2015-Apr-27 20:33N 40°38' W 074°10'0 0.0
2015-Apr-27 19:33N 40°38' W 074°10'0 0.0
2015-Apr-27 18:33N 40°38' W 074°10'2 2.0
2015-Apr-27 17:34N 40°39' W 074°07'2 1.8
2015-Apr-27 16:33N 40°38' W 074°09'0 0.3
2015-Apr-27 15:34N 40°38' W 074°10'0 0.0
2015-Apr-27 14:33N 40°38' W 074°10'0 0.0
2015-Apr-27 13:33N 40°38' W 074°10'0 0.0
2015-Apr-27 12:33N 40°38' W 074°10'1 1.1
2015-Apr-27 11:33N 40°39' W 074°08'3 2.9
2015-Apr-27 10:33N 40°39' W 074°05'6 5.8
2015-Apr-27 09:33N 40°42' W 073°58'2 1.7
2015-Apr-27 08:34N 40°41' W 074°00'6 5.6
2015-Apr-27 07:33N 40°39' W 074°07'2 2.4
2015-Apr-27 06:33N 40°38' W 074°10'0 0.0
2015-Apr-27 05:33N 40°38' W 074°10'0 0.0
2015-Apr-27 04:33N 40°38' W 074°10'0 0.0
2015-Apr-27 03:33N 40°38' W 074°10'0 0.0
2015-Apr-27 02:34N 40°38' W 074°10'2 1.8
2015-Apr-27 01:34N 40°38' W 074°12'0 0.2
2015-Apr-27 00:34N 40°38' W 074°12'0 0.0
2015-Apr-26 23:33N 40°38' W 074°12'0 0.1
2015-Apr-26 22:33N 40°38' W 074°12'2 1.9
2015-Apr-26 21:33N 40°38' W 074°10'0 0.0
2015-Apr-26 20:33N 40°38' W 074°10'0 0.0
2015-Apr-26 19:33N 40°38' W 074°10'0 0.0
2015-Apr-26 18:33N 40°38' W 074°10'0 0.0
2015-Apr-26 17:33N 40°38' W 074°10'0 0.0
2015-Apr-26 16:33N 40°38' W 074°10'0 0.0
2015-Apr-26 15:33N 40°38' W 074°10'0 0.0
2015-Apr-26 14:34N 40°38' W 074°10'0 0.0
2015-Apr-26 13:33N 40°38' W 074°10'0 0.0
2015-Apr-26 12:34N 40°38' W 074°10'0 0.0
2015-Apr-26 11:33N 40°38' W 074°10'0 0.0
2015-Apr-26 10:33N 40°38' W 074°10'0 0.4
2015-Apr-26 09:33N 40°39' W 074°10'4 0.9
2015-Apr-26 05:33N 40°35' W 074°12'0 0.0
2015-Apr-26 04:28N 40°35' W 074°12'0 0.0
2015-Apr-26 02:27N 40°35' W 074°12'0 0.0
2015-Apr-26 00:33N 40°35' W 074°12'0 0.0
2015-Apr-25 23:23N 40°35' W 074°12'0 0.0
2015-Apr-25 21:21N 40°35' W 074°12'2 1.1
2015-Apr-25 19:31N 40°34' W 074°13'3 1.1
2015-Apr-25 16:23N 40°31' W 074°16'5 2.9
2015-Apr-25 14:32N 40°35' W 074°12'0 0.0
2015-Apr-25 13:31N 40°35' W 074°12'1 1.0
2015-Apr-25 12:33N 40°36' W 074°12'6 5.7
2015-Apr-25 11:33N 40°41' W 074°08'1 0.9
2015-Apr-25 10:33N 40°42' W 074°08'0 0.2
2015-Apr-25 09:33N 40°42' W 074°08'3 3.3
2015-Apr-25 08:34N 40°38' W 074°10'0 0.0
2015-Apr-25 07:33N 40°38' W 074°10'0 0.0
2015-Apr-25 06:33N 40°38' W 074°10'0 0.0
2015-Apr-25 05:33N 40°38' W 074°10'0 0.0
2015-Apr-25 04:34N 40°38' W 074°10'0 0.0
2015-Apr-25 03:33N 40°38' W 074°10'0 0.0
2015-Apr-25 02:33N 40°38' W 074°10'0 0.0
2015-Apr-25 01:33N 40°38' W 074°10'0 0.0
2015-Apr-25 00:33N 40°38' W 074°10'0 0.0
2015-Apr-24 23:33N 40°38' W 074°10'  

Dump ship's entire track history